My Plover Weather SKY Cam is now in Wide Screen HD and updates every 5 minutes.

Check out the following SkyCam Time-Lapse from Monday Afternoon (2-4pm).
Plover Weather TEST Time-Lapse (2pm-4pm) in MP4
Plover Weather TEST Time-Lapse (2pm-4pm) in WMV

All current conditions and weather history are recorded live from Forest Drive in Plover Wisconsin. Plover Weather is a Non Profit volunteer public donation funded site.

Live Plover Skycam  Live Plover Skycam



from: Jun 26 2017 9:19 pm until: Jun 27 2017 2:30 pm Hydrologic Outlook 
- Responsive action SHOULD be taken in the near future

Nearby METAR Reports

   
KISW - Wisconsin Rapids, WI
Updated: Jun 27 2017 1:54 pm
Partly Cloudy  
Partly Cloudy  
   Wind: West 11.5 mph
Wind: West 11.5 mph
Temperature: 73.4°F
Dew Point: 46.4°F
Humidity: 38%
Barometer: 30.05 inHg
Clouds: Partly Cloudy
Visibility: 10 mi
Cloud details: Partly Cloudy 1981 m
KISW 271854Z AUTO 27010KT 10SM SCT065 23/08 A3005 RMK AO2 SLP175 T02330083
KSTE - Stevens Point, WI
Updated: Jun 27 2017 1:55 pm
Partly Cloudy  
Partly Cloudy  
   Wind: WSW 6.9 mph
Wind: WSW 6.9 mph
Temperature: 71.6°F
Dew Point: 44.6°F
Humidity: 38%
Barometer: 30.05 inHg
Clouds: Partly Cloudy
Visibility: 10 mi
Cloud details: Partly Cloudy 1829 m
KSTE 271855Z AUTO 25006KT 10SM SCT060 22/07 A3005 RMK AO2 T02150066
KMFI - Marshfield, WI
Updated: Jun 27 2017 1:54 pm
Mostly Cloudy  
Mostly Cloudy  
   Wind: SW 6.9 mph
Wind: SW 6.9 mph
Temperature: 71.6°F
Dew Point: 46.4°F
Humidity: 41%
Barometer: 30.03 inHg
Clouds: Mostly Cloudy
Visibility: 10 mi
Cloud details: Mostly Cloudy 1829 m
KMFI 271854Z AUTO 23006KT 10SM BKN060 22/08 A3003 RMK AO2 SLP170 T02170078 TSNO
KISW - Friendship, WI
Updated: Jun 27 2017 1:54 pm
Partly Cloudy  
Partly Cloudy  
   Wind: West 11.5 mph
Wind: West 11.5 mph
Temperature: 73.4°F
Dew Point: 46.4°F
Humidity: 38%
Barometer: 30.05 inHg
Clouds: Partly Cloudy
Visibility: 10 mi
Cloud details: Partly Cloudy 1981 m
KISW 271854Z AUTO 27010KT 10SM SCT065 23/08 A3005 RMK AO2 SLP175 T02330083
KSTE - Waupaca, WI
Updated: Jun 27 2017 1:55 pm
Partly Cloudy  
Partly Cloudy  
   Wind: WSW 6.9 mph
Wind: WSW 6.9 mph
Temperature: 71.6°F
Dew Point: 44.6°F
Humidity: 38%
Barometer: 30.05 inHg
Clouds: Partly Cloudy
Visibility: 10 mi
Cloud details: Partly Cloudy 1829 m
KSTE 271855Z AUTO 25006KT 10SM SCT060 22/07 A3005 RMK AO2 T02150066
KSTE - Custer, WI
Updated: Jun 27 2017 1:55 pm
Partly Cloudy  
Partly Cloudy  
   Wind: WSW 6.9 mph
Wind: WSW 6.9 mph
Temperature: 71.6°F
Dew Point: 44.6°F
Humidity: 38%
Barometer: 30.05 inHg
Clouds: Partly Cloudy
Visibility: 10 mi
Cloud details: Partly Cloudy 1829 m
KSTE 271855Z AUTO 25006KT 10SM SCT060 22/07 A3005 RMK AO2 T02150066

Script developed by  Saratoga-weather.org Adapted for the template by  Weerstation Leuven

You find our weather info also at:

Weather Underground

Citizen Weather Observer Program (CWOP)

HAMweather, WeatherForYou, PWS Weather

Anything Weather

Equipment we use:

Weather-station
Davis VP2

Weather-program
Weather Display

Weather-server
Dell I7 WorkStation

Provider
FatCow

Davis VP2

Weather Display

Dell I7 WorkStation

FatCow